createdAt,value
2022-08-17T00:00:43.601Z,21.50
2022-08-17T00:03:13.657Z,21.40
2022-08-17T00:05:47.998Z,21.40
2022-08-17T00:08:19.692Z,21.40
2022-08-17T00:10:49.364Z,21.40
2022-08-17T00:13:24.706Z,21.30
2022-08-17T00:15:55.671Z,21.30
2022-08-17T00:19:06.103Z,21.30
2022-08-17T00:21:15.529Z,21.30
2022-08-17T00:23:52.221Z,21.20
2022-08-17T00:26:35.824Z,21.20
2022-08-17T00:29:10.673Z,21.10
2022-08-17T00:34:17.596Z,21.20
2022-08-17T00:36:47.449Z,21.10
2022-08-17T00:41:44.697Z,21.10
2022-08-17T00:44:13.203Z,21.10
2022-08-17T00:46:44.382Z,21.00
2022-08-17T00:49:15.232Z,21.00
2022-08-17T00:51:51.350Z,21.00
2022-08-17T00:54:24.949Z,21.00
2022-08-17T00:57:00.281Z,21.00
2022-08-17T00:59:34.884Z,21.00
2022-08-17T01:02:06.269Z,20.90
2022-08-17T01:04:35.700Z,20.90
2022-08-17T01:07:07.033Z,20.90
2022-08-17T01:09:35.851Z,20.80
2022-08-17T01:12:06.614Z,20.80
2022-08-17T01:14:38.208Z,20.70
2022-08-17T01:19:40.186Z,21.20
2022-08-17T01:22:21.754Z,20.60
2022-08-17T01:24:53.586Z,20.50
2022-08-17T01:27:23.122Z,20.50
2022-08-17T01:29:57.883Z,20.50
2022-08-17T01:32:28.050Z,20.50
2022-08-17T01:34:56.589Z,20.40
2022-08-17T01:37:34.458Z,20.40
2022-08-17T01:40:13.845Z,20.40
2022-08-17T01:42:49.862Z,20.30
2022-08-17T01:45:23.918Z,20.40
2022-08-17T01:47:53.703Z,20.30
2022-08-17T01:50:26.252Z,20.30
2022-08-17T01:53:01.062Z,20.30
2022-08-17T01:55:33.673Z,20.30
2022-08-17T01:58:02.342Z,20.20
2022-08-17T02:00:59.538Z,20.20
2022-08-17T02:03:19.454Z,24.10
2022-08-17T02:05:49.318Z,20.10
2022-08-17T02:08:20.694Z,20.20
2022-08-17T02:11:11.701Z,20.10
2022-08-17T02:13:40.784Z,20.10
2022-08-17T02:18:37.977Z,20.10
2022-08-17T02:21:07.517Z,20.00
2022-08-17T02:23:42.762Z,20.00
2022-08-17T02:26:11.995Z,20.00
2022-08-17T02:28:54.835Z,19.90
2022-08-17T02:31:23.268Z,19.90
2022-08-17T02:34:00.389Z,19.90
2022-08-17T02:36:35.117Z,19.80
2022-08-17T02:39:09.238Z,19.80
2022-08-17T02:41:38.926Z,19.80
2022-08-17T02:44:08.080Z,19.80
2022-08-17T02:46:36.861Z,19.80
2022-08-17T02:49:06.217Z,19.80
2022-08-17T02:51:36.276Z,19.80
2022-08-17T02:54:39.874Z,19.80
2022-08-17T02:56:55.041Z,19.80
2022-08-17T02:59:24.354Z,19.80
2022-08-17T03:01:53.682Z,19.80
2022-08-17T03:04:22.267Z,19.80
2022-08-17T03:06:50.704Z,19.80
2022-08-17T03:09:20.458Z,19.80
2022-08-17T03:11:51.898Z,19.90
2022-08-17T03:14:26.216Z,19.90
2022-08-17T03:16:54.860Z,19.80
2022-08-17T03:19:23.626Z,19.80
2022-08-17T03:21:54.826Z,19.80
2022-08-17T03:24:28.838Z,19.80
2022-08-17T03:26:57.607Z,19.80
2022-08-17T03:29:26.074Z,19.80
2022-08-17T03:31:54.624Z,19.80
2022-08-17T03:34:23.169Z,19.80
2022-08-17T03:36:51.622Z,19.80
2022-08-17T03:39:19.978Z,19.70
2022-08-17T03:41:49.761Z,19.70
2022-08-17T03:44:18.132Z,19.80
2022-08-17T03:47:04.108Z,19.70
2022-08-17T03:49:50.004Z,19.80
2022-08-17T03:52:35.689Z,19.70
2022-08-17T03:55:22.067Z,19.80
2022-08-17T03:58:05.787Z,19.80
2022-08-17T04:00:36.318Z,19.80
2022-08-17T04:03:09.081Z,19.80
2022-08-17T04:05:37.601Z,19.80
2022-08-17T04:08:07.146Z,19.80
2022-08-17T04:10:41.356Z,19.80
2022-08-17T04:13:14.961Z,19.80
2022-08-17T04:15:52.640Z,19.80
2022-08-17T04:18:21.115Z,19.80
2022-08-17T04:20:49.486Z,19.80
2022-08-17T04:23:19.977Z,19.80
2022-08-17T04:25:51.610Z,19.80
2022-08-17T04:28:22.178Z,19.80
2022-08-17T04:30:50.912Z,19.90
2022-08-17T04:33:24.062Z,19.90
2022-08-17T04:35:55.880Z,19.90
2022-08-17T04:38:26.821Z,19.80
2022-08-17T04:41:14.166Z,19.70
2022-08-17T04:43:46.265Z,19.50
2022-08-17T04:46:17.865Z,19.50
2022-08-17T04:48:48.718Z,19.50
2022-08-17T04:51:22.897Z,19.60
2022-08-17T04:53:55.297Z,19.70
2022-08-17T04:56:26.258Z,19.70
2022-08-17T04:58:59.647Z,19.80
2022-08-17T05:01:31.568Z,20.00
2022-08-17T05:04:32.922Z,20.00
2022-08-17T05:06:55.090Z,20.20
2022-08-17T05:09:23.544Z,20.20
2022-08-17T05:11:52.820Z,20.40
2022-08-17T05:14:32.360Z,20.30
2022-08-17T05:17:07.066Z,20.40
2022-08-17T05:19:37.862Z,20.50
2022-08-17T05:22:07.155Z,20.60
2022-08-17T05:24:38.364Z,20.60
2022-08-17T05:27:07.692Z,20.70
2022-08-17T05:29:37.517Z,20.80
2022-08-17T05:32:38.674Z,20.80
2022-08-17T05:35:00.402Z,20.90
2022-08-17T05:37:29.097Z,20.90
2022-08-17T05:39:58.907Z,21.00
2022-08-17T05:42:27.303Z,21.00
2022-08-17T05:44:59.975Z,21.00
2022-08-17T05:47:29.553Z,21.00
2022-08-17T05:49:59.045Z,21.00
2022-08-17T05:52:42.832Z,21.00
2022-08-17T05:55:21.827Z,21.00
2022-08-17T05:58:06.587Z,21.00
2022-08-17T06:00:50.485Z,21.00
2022-08-17T06:03:41.393Z,21.10
2022-08-17T06:06:35.404Z,21.00
2022-08-17T06:09:33.960Z,21.00
2022-08-17T06:12:19.893Z,21.00
2022-08-17T06:15:10.685Z,20.90
2022-08-17T06:17:41.101Z,20.80
2022-08-17T06:20:14.117Z,20.80
2022-08-17T06:22:47.271Z,20.90
2022-08-17T06:25:19.922Z,20.90
2022-08-17T06:27:53.642Z,21.00
2022-08-17T06:30:25.958Z,21.00
2022-08-17T06:33:05.969Z,21.10
2022-08-17T06:35:43.737Z,21.10
2022-08-17T06:38:37.156Z,21.20
2022-08-17T06:41:18.966Z,21.30
2022-08-17T06:44:04.241Z,21.40
2022-08-17T06:46:38.497Z,21.40
2022-08-17T06:49:21.797Z,21.40
2022-08-17T06:51:55.486Z,21.50
2022-08-17T06:54:35.134Z,21.50
2022-08-17T06:57:14.928Z,21.50
2022-08-17T06:59:55.660Z,21.50
2022-08-17T07:02:52.032Z,21.50
2022-08-17T07:05:36.622Z,21.50
2022-08-17T07:08:18.605Z,21.40
2022-08-17T07:10:54.089Z,21.40
2022-08-17T07:13:34.480Z,21.30
2022-08-17T07:16:17.251Z,21.30
2022-08-17T07:18:46.572Z,21.30
2022-08-17T07:21:31.257Z,21.30
2022-08-17T07:24:29.333Z,21.30
2022-08-17T07:27:10.734Z,21.30
2022-08-17T07:29:44.537Z,21.30
2022-08-17T07:32:18.278Z,21.10
2022-08-17T07:35:11.205Z,21.10
2022-08-17T07:37:44.176Z,21.00
2022-08-17T07:40:28.489Z,21.00
2022-08-17T07:43:24.396Z,21.00
2022-08-17T07:46:37.258Z,21.00
2022-08-17T07:49:34.747Z,21.00
2022-08-17T07:52:24.088Z,21.00
2022-08-17T07:54:58.537Z,21.10
2022-08-17T07:57:37.114Z,21.10
2022-08-17T08:00:31.783Z,21.00
2022-08-17T08:03:25.400Z,21.00
2022-08-17T08:06:00.236Z,21.00
2022-08-17T08:08:34.523Z,20.80
2022-08-17T08:11:09.397Z,20.50
2022-08-17T08:13:42.871Z,20.50
2022-08-17T08:16:29.194Z,20.50
2022-08-17T08:19:00.981Z,20.60
2022-08-17T08:21:43.711Z,20.70
2022-08-17T08:24:37.388Z,20.80
2022-08-17T08:27:19.291Z,20.80
2022-08-17T08:29:55.789Z,20.90
2022-08-17T08:32:42.793Z,21.00
2022-08-17T08:35:23.770Z,21.00
2022-08-17T08:38:14.722Z,21.00
2022-08-17T08:41:07.126Z,21.00
2022-08-17T08:43:53.063Z,21.00
2022-08-17T08:46:31.796Z,21.00
2022-08-17T08:50:08.979Z,21.00
2022-08-17T08:53:08.322Z,21.10
2022-08-17T08:55:52.977Z,21.00
2022-08-17T08:58:41.930Z,21.00
2022-08-17T09:01:26.825Z,21.10
2022-08-17T09:04:44.955Z,21.20
2022-08-17T09:07:36.718Z,21.20
2022-08-17T09:10:10.272Z,21.30
2022-08-17T09:12:51.721Z,21.40
2022-08-17T09:15:27.640Z,21.70
2022-08-17T09:18:59.142Z,21.80
2022-08-17T09:20:58.375Z,22.00
2022-08-17T09:23:34.086Z,22.10
2022-08-17T09:26:11.630Z,22.30
2022-08-17T09:28:44.622Z,22.40
2022-08-17T09:31:18.993Z,22.60
2022-08-17T09:33:51.255Z,22.70
2022-08-17T09:36:29.245Z,22.80
2022-08-17T09:39:02.553Z,22.90
2022-08-17T09:41:49.238Z,23.00
2022-08-17T09:44:32.071Z,23.10
2022-08-17T09:47:12.050Z,23.20
2022-08-17T09:49:48.192Z,23.40
2022-08-17T09:52:23.437Z,23.60
2022-08-17T09:54:55.446Z,23.70
2022-08-17T09:57:44.996Z,24.00
2022-08-17T10:00:23.706Z,24.20
2022-08-17T10:03:28.272Z,24.20
2022-08-17T10:06:08.800Z,24.40
2022-08-17T10:08:45.515Z,24.50
2022-08-17T10:11:48.404Z,24.60
2022-08-17T10:14:37.305Z,24.50
2022-08-17T10:17:22.232Z,24.30
2022-08-17T10:20:01.094Z,24.20
2022-08-17T10:22:56.464Z,24.00
2022-08-17T10:25:54.678Z,23.80
2022-08-17T10:28:30.946Z,23.60
2022-08-17T10:31:33.874Z,23.30
2022-08-17T10:34:38.707Z,23.30
2022-08-17T10:37:37.455Z,23.20
2022-08-17T10:40:24.588Z,23.10
2022-08-17T10:43:02.457Z,23.10
2022-08-17T10:45:44.981Z,23.00
2022-08-17T10:48:32.945Z,23.00
2022-08-17T10:51:08.785Z,23.10
2022-08-17T10:54:01.557Z,23.20
2022-08-17T10:56:51.507Z,23.30
2022-08-17T10:59:52.809Z,23.30
2022-08-17T11:02:28.155Z,23.40
2022-08-17T11:05:23.764Z,23.50
2022-08-17T11:08:20.565Z,23.60
2022-08-17T11:11:14.574Z,23.80
2022-08-17T11:13:53.654Z,24.00
2022-08-17T11:16:47.920Z,24.30
2022-08-17T11:19:58.505Z,24.50
2022-08-17T11:23:41.622Z,24.90
2022-08-17T11:26:27.132Z,25.40
2022-08-17T11:29:01.350Z,26.00
2022-08-17T11:31:38.713Z,26.10
2022-08-17T11:34:19.743Z,26.20
2022-08-17T11:37:42.775Z,26.30
2022-08-17T11:40:56.126Z,26.60
2022-08-17T11:44:15.359Z,27.10
2022-08-17T11:47:19.224Z,27.40
2022-08-17T11:50:27.731Z,27.50
2022-08-17T11:52:57.001Z,27.50
2022-08-17T11:56:04.750Z,27.40
2022-08-17T11:58:42.041Z,27.20
2022-08-17T12:01:16.244Z,27.10
2022-08-17T12:03:55.412Z,26.90
2022-08-17T12:06:46.628Z,26.80
2022-08-17T12:09:20.826Z,26.70
2022-08-17T12:12:13.431Z,26.50
2022-08-17T12:15:11.079Z,26.40
2022-08-17T12:17:42.881Z,26.40
2022-08-17T12:20:24.046Z,26.30
2022-08-17T12:23:04.397Z,26.20
2022-08-17T12:25:40.313Z,26.10
2022-08-17T12:28:23.458Z,26.10
2022-08-17T12:30:54.174Z,26.10
2022-08-17T12:33:28.333Z,26.20
2022-08-17T12:36:03.990Z,26.20
2022-08-17T12:38:34.780Z,26.30
2022-08-17T12:41:21.628Z,26.30
2022-08-17T12:44:00.413Z,26.30
2022-08-17T12:46:33.579Z,27.70
2022-08-17T12:49:29.527Z,26.40
2022-08-17T12:52:14.177Z,26.30
2022-08-17T12:54:52.359Z,26.30
2022-08-17T12:57:24.146Z,26.20
2022-08-17T12:59:59.785Z,26.10
2022-08-17T13:02:42.544Z,26.10
2022-08-17T13:05:25.020Z,26.00
2022-08-17T13:07:54.542Z,26.00
2022-08-17T13:10:32.478Z,26.10
2022-08-17T13:13:05.393Z,26.20
2022-08-17T13:15:44.905Z,26.50
2022-08-17T13:18:39.549Z,27.00
2022-08-17T13:21:26.618Z,27.50
2022-08-17T13:24:05.667Z,27.80
2022-08-17T13:26:38.207Z,27.90
2022-08-17T13:29:18.629Z,28.00
2022-08-17T13:31:52.675Z,28.10
2022-08-17T13:35:12.622Z,28.30
2022-08-17T13:37:34.059Z,29.10
2022-08-17T13:40:27.890Z,29.10
2022-08-17T13:42:57.681Z,30.70
2022-08-17T13:45:39.651Z,30.80
2022-08-17T13:48:13.870Z,31.10
2022-08-17T13:50:49.208Z,31.60
2022-08-17T13:53:24.737Z,32.10
2022-08-17T13:55:57.040Z,32.50
2022-08-17T13:58:31.821Z,32.80
2022-08-17T14:01:16.431Z,32.90
2022-08-17T14:03:44.850Z,32.80
2022-08-17T14:06:22.111Z,32.90
2022-08-17T14:09:10.222Z,33.00
2022-08-17T14:11:39.622Z,33.10
2022-08-17T14:14:08.073Z,33.20
2022-08-17T14:16:40.285Z,33.50
2022-08-17T14:19:10.173Z,33.60
2022-08-17T14:21:41.046Z,33.60
2022-08-17T14:24:17.081Z,33.70
2022-08-17T14:26:45.799Z,33.70
2022-08-17T14:29:15.447Z,33.90
2022-08-17T14:31:53.251Z,33.90
2022-08-17T14:34:24.079Z,33.90
2022-08-17T14:36:54.022Z,33.80
2022-08-17T14:39:22.508Z,33.60
2022-08-17T14:41:52.995Z,33.60
2022-08-17T14:44:21.473Z,33.50
2022-08-17T14:46:50.470Z,33.30
2022-08-17T14:49:20.673Z,33.10
2022-08-17T14:51:49.489Z,32.90
2022-08-17T14:54:34.116Z,32.80
2022-08-17T14:57:22.495Z,32.70
2022-08-17T14:59:54.949Z,32.70
2022-08-17T15:02:29.824Z,32.70
2022-08-17T15:05:03.833Z,32.70
2022-08-17T15:07:32.496Z,32.60
2022-08-17T15:10:02.803Z,32.70
2022-08-17T15:12:34.029Z,32.70
2022-08-17T15:15:04.760Z,32.80
2022-08-17T15:17:44.617Z,33.00
2022-08-17T15:20:18.049Z,33.20
2022-08-17T15:22:49.636Z,33.30
2022-08-17T15:25:22.099Z,33.50
2022-08-17T15:27:50.988Z,33.60
2022-08-17T15:30:20.684Z,33.80
2022-08-17T15:32:55.160Z,33.90
2022-08-17T15:35:27.908Z,33.90
2022-08-17T15:38:06.195Z,33.90
2022-08-17T15:40:43.800Z,34.00
2022-08-17T15:43:16.870Z,33.80
2022-08-17T15:45:58.610Z,33.70
2022-08-17T15:48:41.338Z,33.60
2022-08-17T15:51:12.878Z,33.50
2022-08-17T15:53:43.153Z,33.40
2022-08-17T15:56:13.645Z,33.40
2022-08-17T15:58:44.515Z,33.50
2022-08-17T16:01:18.715Z,33.30
2022-08-17T16:04:06.637Z,33.00
2022-08-17T16:06:50.497Z,32.10
2022-08-17T16:09:18.977Z,32.00
2022-08-17T16:11:55.096Z,31.10
2022-08-17T16:14:24.101Z,30.70
2022-08-17T16:16:52.777Z,30.30
2022-08-17T16:19:21.220Z,30.00
2022-08-17T16:21:49.592Z,29.80
2022-08-17T16:24:18.001Z,29.60
2022-08-17T16:26:46.374Z,29.50
2022-08-17T16:29:16.325Z,29.30
2022-08-17T16:31:44.738Z,29.10
2022-08-17T16:34:17.114Z,29.00
2022-08-17T16:36:55.265Z,28.90
2022-08-17T16:39:27.348Z,28.80
2022-08-17T16:41:57.269Z,28.70
2022-08-17T16:44:28.954Z,28.60
2022-08-17T16:46:58.095Z,28.50
2022-08-17T16:52:11.265Z,28.40
2022-08-17T16:54:43.312Z,28.40
2022-08-17T16:59:47.770Z,28.20
2022-08-17T17:02:18.124Z,28.20
2022-08-17T17:04:53.929Z,28.10
2022-08-17T17:07:52.122Z,28.10
2022-08-17T17:10:25.262Z,28.00
2022-08-17T17:13:03.498Z,27.90
2022-08-17T17:15:54.283Z,27.90
2022-08-17T17:18:32.637Z,27.80
2022-08-17T17:21:02.171Z,27.80
2022-08-17T17:23:46.529Z,27.80
2022-08-17T17:26:48.329Z,27.80
2022-08-17T17:29:47.482Z,27.80
2022-08-17T17:32:25.342Z,27.70
2022-08-17T17:35:02.595Z,27.70
2022-08-17T17:37:35.824Z,27.70
2022-08-17T17:40:13.608Z,27.60
2022-08-17T17:42:44.724Z,27.60
2022-08-17T17:45:21.812Z,27.50
2022-08-17T17:47:51.795Z,27.50
2022-08-17T17:50:28.984Z,27.40
2022-08-17T17:53:04.065Z,27.40
2022-08-17T17:55:48.064Z,27.40
2022-08-17T17:58:36.946Z,27.40
2022-08-17T18:01:42.010Z,27.40
2022-08-17T18:04:23.526Z,27.40
2022-08-17T18:07:13.234Z,27.30
2022-08-17T18:10:02.002Z,27.30
2022-08-17T18:12:41.620Z,27.20
2022-08-17T18:15:25.677Z,27.20
2022-08-17T18:18:37.768Z,27.10
2022-08-17T18:21:16.803Z,27.00
2022-08-17T18:23:59.935Z,27.00
2022-08-17T18:26:46.520Z,26.90
2022-08-17T18:29:38.016Z,26.80
2022-08-17T18:32:35.638Z,26.80
2022-08-17T18:35:30.394Z,26.70
2022-08-17T18:38:22.828Z,26.50
2022-08-17T18:41:06.192Z,26.50
2022-08-17T18:43:52.633Z,26.40
2022-08-17T18:46:35.370Z,26.40
2022-08-17T18:49:07.720Z,26.40
2022-08-17T18:51:42.503Z,26.30
2022-08-17T18:54:23.922Z,26.30
2022-08-17T18:56:57.017Z,26.10
2022-08-17T18:59:42.274Z,26.00
2022-08-17T19:02:44.116Z,26.00
2022-08-17T19:05:29.125Z,25.90
2022-08-17T19:08:20.620Z,25.80
2022-08-17T19:10:55.130Z,25.80
2022-08-17T19:13:32.802Z,25.70
2022-08-17T19:16:12.325Z,25.70
2022-08-17T19:18:49.676Z,25.60
2022-08-17T19:21:24.640Z,25.50
2022-08-17T19:24:01.467Z,25.50
2022-08-17T19:26:50.531Z,25.40
2022-08-17T19:29:27.630Z,25.40
2022-08-17T19:31:58.747Z,25.30
2022-08-17T19:34:34.375Z,25.30
2022-08-17T19:37:10.653Z,25.30
2022-08-17T19:39:51.035Z,27.10
2022-08-17T19:42:33.931Z,25.10
2022-08-17T19:45:11.702Z,25.10
2022-08-17T19:47:55.432Z,25.00
2022-08-17T19:50:38.447Z,24.90
2022-08-17T19:53:21.273Z,24.80
2022-08-17T19:56:00.937Z,24.80
2022-08-17T19:58:48.200Z,24.80
2022-08-17T20:01:34.973Z,24.70
2022-08-17T20:04:14.165Z,24.70
2022-08-17T20:06:49.256Z,24.60
2022-08-17T20:09:21.859Z,24.60
2022-08-17T20:11:56.297Z,24.60
2022-08-17T20:14:40.089Z,24.50
2022-08-17T20:17:23.420Z,24.40
2022-08-17T20:20:00.072Z,24.40
2022-08-17T20:22:36.916Z,24.30
2022-08-17T20:25:32.633Z,24.30
2022-08-17T20:28:15.687Z,24.20
2022-08-17T20:30:46.113Z,24.10
2022-08-17T20:33:28.430Z,24.00
2022-08-17T20:36:19.231Z,24.00
2022-08-17T20:38:50.872Z,24.00
2022-08-17T20:41:23.186Z,23.90
2022-08-17T20:44:07.108Z,23.90
2022-08-17T20:46:57.934Z,23.80
2022-08-17T20:49:40.117Z,23.80
2022-08-17T20:52:13.397Z,23.70
2022-08-17T20:54:49.948Z,23.70
2022-08-17T20:57:48.990Z,23.60
2022-08-17T21:00:47.266Z,23.60
2022-08-17T21:03:52.738Z,23.60
2022-08-17T21:06:25.316Z,23.50
2022-08-17T21:09:19.641Z,23.50
2022-08-17T21:12:03.949Z,23.50
2022-08-17T21:14:57.363Z,23.50
2022-08-17T21:17:48.125Z,23.40
2022-08-17T21:20:32.969Z,23.20
2022-08-17T21:23:25.824Z,23.10
2022-08-17T21:26:13.822Z,22.90
2022-08-17T21:29:32.593Z,22.80
2022-08-17T21:32:24.199Z,22.70
2022-08-17T21:35:28.896Z,22.60
2022-08-17T21:38:04.985Z,22.50
2022-08-17T21:40:35.460Z,22.40
2022-08-17T21:43:35.219Z,22.40
2022-08-17T21:46:08.295Z,22.30
2022-08-17T21:48:45.378Z,22.30
2022-08-17T21:51:23.444Z,22.30
2022-08-17T21:53:54.289Z,22.30
2022-08-17T21:56:26.562Z,22.30
2022-08-17T21:59:00.561Z,22.30
2022-08-17T22:01:35.322Z,22.30
2022-08-17T22:04:08.629Z,22.30
2022-08-17T22:06:42.184Z,22.20
2022-08-17T22:09:25.694Z,22.20
2022-08-17T22:12:07.218Z,22.20
2022-08-17T22:14:52.485Z,22.20
2022-08-17T22:17:26.075Z,22.10
2022-08-17T22:19:57.816Z,22.10
2022-08-17T22:22:57.077Z,22.10
2022-08-17T22:25:26.706Z,22.10
2022-08-17T22:28:00.106Z,22.10
2022-08-17T22:30:36.584Z,22.00
2022-08-17T22:33:39.647Z,22.00
2022-08-17T22:36:29.448Z,22.10
2022-08-17T22:39:03.409Z,22.10
2022-08-17T22:41:43.833Z,22.20
2022-08-17T22:44:31.618Z,22.20
2022-08-17T22:47:11.426Z,22.20
2022-08-17T22:49:54.092Z,22.20
2022-08-17T22:52:34.429Z,22.20
2022-08-17T22:55:31.878Z,22.20
2022-08-17T22:58:19.004Z,22.20
2022-08-17T23:00:50.656Z,22.20
2022-08-17T23:03:22.895Z,22.10
2022-08-17T23:06:07.498Z,22.10
2022-08-17T23:08:43.645Z,22.10
2022-08-17T23:11:15.033Z,22.10
2022-08-17T23:13:44.418Z,22.00
2022-08-17T23:16:13.305Z,22.00
2022-08-17T23:18:41.721Z,22.00
2022-08-17T23:21:10.355Z,21.90
2022-08-17T23:23:44.629Z,21.90
2022-08-17T23:26:14.376Z,21.90
2022-08-17T23:28:43.766Z,21.80
2022-08-17T23:31:13.777Z,21.70
2022-08-17T23:33:42.529Z,21.60
2022-08-17T23:36:15.362Z,21.60
2022-08-17T23:41:21.404Z,21.40
2022-08-17T23:43:53.671Z,21.30
2022-08-17T23:46:25.081Z,21.30
2022-08-17T23:48:54.202Z,21.30
2022-08-17T23:51:28.484Z,21.30
2022-08-17T23:54:07.698Z,21.30
2022-08-17T23:56:44.502Z,21.40
2022-08-17T23:59:13.526Z,21.40
